createdAt,value
2022-09-07T00:00:53.822Z,4.28
2022-09-07T00:03:21.715Z,3.92
2022-09-07T00:05:51.152Z,4.38
2022-09-07T00:08:22.394Z,5.03
2022-09-07T00:10:54.881Z,4.82
2022-09-07T00:13:23.167Z,5.20
2022-09-07T00:15:50.328Z,5.03
2022-09-07T00:18:17.509Z,5.72
2022-09-07T00:20:45.400Z,4.90
2022-09-07T00:23:12.764Z,5.28
2022-09-07T00:25:40.738Z,6.25
2022-09-07T00:28:08.902Z,4.63
2022-09-07T00:30:42.325Z,5.65
2022-09-07T00:33:10.373Z,6.10
2022-09-07T00:35:43.348Z,5.80
2022-09-07T00:38:10.311Z,5.60
2022-09-07T00:40:37.328Z,6.78
2022-09-07T00:43:05.316Z,5.95
2022-09-07T00:45:33.093Z,5.47
2022-09-07T00:48:16.958Z,5.97
2022-09-07T00:50:56.869Z,5.25
2022-09-07T00:53:30.956Z,6.00
2022-09-07T00:56:00.199Z,4.78
2022-09-07T00:58:28.263Z,5.37
2022-09-07T01:00:56.229Z,4.45
2022-09-07T01:03:31.011Z,4.75
2022-09-07T01:06:12.012Z,3.95
2022-09-07T01:08:39.801Z,4.57
2022-09-07T01:11:06.912Z,4.50
2022-09-07T01:13:34.256Z,4.10
2022-09-07T01:16:26.480Z,4.28
2022-09-07T01:19:28.106Z,4.45
2022-09-07T01:22:26.956Z,5.20
2022-09-07T01:25:28.752Z,5.13
2022-09-07T01:28:11.130Z,5.03
2022-09-07T01:30:41.941Z,4.40
2022-09-07T01:34:04.424Z,4.00
2022-09-07T01:37:05.465Z,4.70
2022-09-07T01:39:45.895Z,4.43
2022-09-07T01:42:15.657Z,4.97
2022-09-07T01:44:46.724Z,4.70
2022-09-07T01:47:31.667Z,5.20
2022-09-07T01:50:02.755Z,4.43
2022-09-07T01:52:44.634Z,5.50
2022-09-07T01:55:22.204Z,4.50
2022-09-07T01:58:01.195Z,3.58
2022-09-07T02:00:28.554Z,4.35
2022-09-07T02:03:08.422Z,3.35
2022-09-07T02:05:58.467Z,3.07
2022-09-07T02:08:42.446Z,3.33
2022-09-07T02:11:36.400Z,4.15
2022-09-07T02:14:29.195Z,4.00
2022-09-07T02:17:08.927Z,3.50
2022-09-07T02:19:44.244Z,3.33
2022-09-07T02:22:17.371Z,3.95
2022-09-07T02:24:51.989Z,4.72
2022-09-07T02:27:51.906Z,4.07
2022-09-07T02:30:18.932Z,4.22
2022-09-07T02:32:46.005Z,3.13
2022-09-07T02:35:13.693Z,3.60
2022-09-07T02:37:43.000Z,3.65
2022-09-07T02:40:10.826Z,3.30
2022-09-07T02:42:39.348Z,3.70
2022-09-07T02:45:10.221Z,2.50
2022-09-07T02:47:52.233Z,2.33
2022-09-07T02:50:37.224Z,2.58
2022-09-07T02:53:33.559Z,3.13
2022-09-07T02:56:35.980Z,2.50
2022-09-07T02:59:36.288Z,2.40
2022-09-07T03:02:35.691Z,3.22
2022-09-07T03:05:10.606Z,3.35
2022-09-07T03:07:49.451Z,3.83
2022-09-07T03:10:18.428Z,4.22
2022-09-07T03:12:50.609Z,3.23
2022-09-07T03:15:24.250Z,3.40
2022-09-07T03:17:52.220Z,3.47
2022-09-07T03:20:20.666Z,3.88
2022-09-07T03:22:49.880Z,4.05
2022-09-07T03:25:17.349Z,3.73
2022-09-07T03:27:44.344Z,3.67
2022-09-07T03:30:13.645Z,4.57
2022-09-07T03:32:40.661Z,3.90
2022-09-07T03:35:09.103Z,4.38
2022-09-07T03:37:37.635Z,4.00
2022-09-07T03:40:07.789Z,3.42
2022-09-07T03:42:35.202Z,3.50
2022-09-07T03:45:02.396Z,3.90
2022-09-07T03:47:29.384Z,3.75
2022-09-07T03:49:56.400Z,3.33
2022-09-07T03:52:23.324Z,3.15
2022-09-07T03:54:50.270Z,3.20
2022-09-07T03:57:17.259Z,2.83
2022-09-07T03:59:44.247Z,3.20
2022-09-07T04:02:11.221Z,3.23
2022-09-07T04:04:38.272Z,3.25
2022-09-07T04:07:06.665Z,3.42
2022-09-07T04:09:33.594Z,4.00
2022-09-07T04:12:00.603Z,4.25
2022-09-07T04:14:27.507Z,3.80
2022-09-07T04:16:54.519Z,3.83
2022-09-07T04:19:21.812Z,3.50
2022-09-07T04:21:48.881Z,3.75
2022-09-07T04:24:17.664Z,3.67
2022-09-07T04:26:45.573Z,3.60
2022-09-07T04:29:13.285Z,3.53
2022-09-07T04:31:40.339Z,3.33
2022-09-07T04:34:07.895Z,3.70
2022-09-07T04:36:35.273Z,3.75
2022-09-07T04:39:05.455Z,3.67
2022-09-07T04:41:34.800Z,3.53
2022-09-07T04:44:03.552Z,3.60
2022-09-07T04:46:36.533Z,3.15
2022-09-07T04:49:08.400Z,4.10
2022-09-07T04:51:37.731Z,4.00
2022-09-07T04:54:06.170Z,3.75
2022-09-07T04:56:33.917Z,4.25
2022-09-07T04:59:04.829Z,4.68
2022-09-07T05:01:31.824Z,4.93
2022-09-07T05:04:01.628Z,4.93
2022-09-07T05:06:29.270Z,4.63
2022-09-07T05:08:58.088Z,4.88
2022-09-07T05:11:29.217Z,4.80
2022-09-07T05:13:59.227Z,5.07
2022-09-07T05:16:27.607Z,5.20
2022-09-07T05:19:01.410Z,4.82
2022-09-07T05:21:31.931Z,4.80
2022-09-07T05:24:00.419Z,4.90
2022-09-07T05:26:32.704Z,5.60
2022-09-07T05:31:49.865Z,5.25
2022-09-07T05:34:32.850Z,5.78
2022-09-07T05:37:01.031Z,5.95
2022-09-07T05:39:28.546Z,5.50
2022-09-07T05:41:56.908Z,5.23
2022-09-07T05:47:11.436Z,5.22
2022-09-07T05:49:38.375Z,5.43
2022-09-07T05:52:05.451Z,5.43
2022-09-07T05:54:32.447Z,4.73
2022-09-07T05:56:59.360Z,6.05
2022-09-07T05:59:26.750Z,6.20
2022-09-07T06:01:53.781Z,6.97
2022-09-07T06:04:20.815Z,7.80
2022-09-07T06:07:17.582Z,8.33
2022-09-07T06:09:35.520Z,7.45
2022-09-07T06:12:05.299Z,8.00
2022-09-07T06:14:33.329Z,7.35
2022-09-07T06:17:00.305Z,8.52
2022-09-07T06:19:27.307Z,7.37
2022-09-07T06:21:54.300Z,8.65
2022-09-07T06:24:21.306Z,8.30
2022-09-07T06:26:48.239Z,9.48
2022-09-07T06:29:15.130Z,9.27
2022-09-07T06:34:29.325Z,8.05
2022-09-07T06:36:56.572Z,9.38
2022-09-07T06:39:23.466Z,8.68
2022-09-07T06:44:25.205Z,9.60
2022-09-07T06:47:07.489Z,10.02
2022-09-07T06:49:34.491Z,9.27
2022-09-07T06:52:01.484Z,10.30
2022-09-07T06:57:16.497Z,12.80
2022-09-07T06:59:43.409Z,10.85
2022-09-07T07:02:14.884Z,12.35
2022-09-07T07:04:41.862Z,10.48
2022-09-07T07:07:14.931Z,12.48
2022-09-07T07:09:42.413Z,11.47
2022-09-07T07:12:10.762Z,11.80
2022-09-07T07:14:41.087Z,13.45
2022-09-07T07:17:11.192Z,12.10
2022-09-07T07:19:38.304Z,12.50
2022-09-07T07:22:23.901Z,11.73
2022-09-07T07:24:52.353Z,13.00
2022-09-07T07:27:21.403Z,11.77
2022-09-07T07:29:48.288Z,13.15
2022-09-07T07:32:15.452Z,12.70
2022-09-07T07:35:01.775Z,11.57
2022-09-07T07:37:28.670Z,10.80
2022-09-07T07:42:43.664Z,13.10
2022-09-07T07:47:59.128Z,13.70
2022-09-07T07:50:33.915Z,12.70
2022-09-07T07:55:48.829Z,12.00
2022-09-07T07:58:15.718Z,13.75
2022-09-07T08:00:58.097Z,14.50
2022-09-07T08:03:26.091Z,13.45
2022-09-07T08:05:54.599Z,14.25
2022-09-07T08:08:23.555Z,13.10
2022-09-07T08:10:51.023Z,14.18
2022-09-07T08:13:19.001Z,12.93
2022-09-07T08:15:46.323Z,12.00
2022-09-07T08:18:15.671Z,14.85
2022-09-07T08:20:43.098Z,12.60
2022-09-07T08:23:10.564Z,13.07
2022-09-07T08:25:37.521Z,14.80
2022-09-07T08:28:04.602Z,14.57
2022-09-07T08:30:31.518Z,16.00
2022-09-07T08:32:58.425Z,16.50
2022-09-07T08:35:25.463Z,14.88
2022-09-07T08:37:52.311Z,12.90
2022-09-07T08:40:20.535Z,17.48
2022-09-07T08:42:53.333Z,15.55
2022-09-07T08:45:48.248Z,15.88
2022-09-07T08:48:20.989Z,15.90
2022-09-07T08:51:08.749Z,15.27
2022-09-07T08:53:43.867Z,14.15
2022-09-07T08:56:33.430Z,15.93
2022-09-07T08:59:21.727Z,15.63
2022-09-07T09:05:16.286Z,13.20
2022-09-07T09:08:02.967Z,14.80
2022-09-07T09:11:16.257Z,13.13
2022-09-07T09:14:10.860Z,13.88
2022-09-07T09:16:51.279Z,13.25
2022-09-07T09:19:30.678Z,11.87
2022-09-07T09:22:11.019Z,12.77
2022-09-07T09:24:41.851Z,13.00
2022-09-07T09:27:10.393Z,14.40
2022-09-07T09:29:37.260Z,11.75
2022-09-07T09:32:41.575Z,12.33
2022-09-07T09:35:35.529Z,10.90
2022-09-07T09:38:05.813Z,10.35
2022-09-07T09:40:35.447Z,11.63
2022-09-07T09:43:21.763Z,11.10
2022-09-07T09:48:41.485Z,10.25
2022-09-07T09:54:01.719Z,9.90
2022-09-07T09:56:46.252Z,10.05
2022-09-07T10:05:37.230Z,9.88
2022-09-07T10:08:25.332Z,8.95
2022-09-07T10:11:09.763Z,9.68
2022-09-07T10:13:46.888Z,8.27
2022-09-07T10:16:15.008Z,7.97
2022-09-07T10:18:57.200Z,8.43
2022-09-07T10:21:32.299Z,7.65
2022-09-07T10:24:05.244Z,7.82
2022-09-07T10:26:35.848Z,6.83
2022-09-07T10:29:29.600Z,7.43
2022-09-07T10:32:52.747Z,7.00
2022-09-07T10:35:46.100Z,7.50
2022-09-07T10:38:25.869Z,6.90
2022-09-07T10:41:08.173Z,5.23
2022-09-07T10:43:52.572Z,3.88
2022-09-07T10:47:03.979Z,4.28
2022-09-07T10:52:45.786Z,4.13
2022-09-07T10:55:26.193Z,3.40
2022-09-07T10:58:08.359Z,3.30
2022-09-07T11:00:58.036Z,3.13
2022-09-07T11:04:03.458Z,3.58
2022-09-07T11:06:41.661Z,4.20
2022-09-07T11:09:31.888Z,4.03
2022-09-07T11:12:14.575Z,4.25
2022-09-07T11:14:56.319Z,3.63
2022-09-07T11:17:28.271Z,2.53
2022-09-07T11:20:14.300Z,3.53
2022-09-07T11:23:02.562Z,3.40
2022-09-07T11:26:11.292Z,3.65
2022-09-07T11:31:53.585Z,3.50
2022-09-07T11:34:35.631Z,2.72
2022-09-07T11:37:17.218Z,2.90
2022-09-07T11:40:17.268Z,2.45
2022-09-07T11:42:55.789Z,2.63
2022-09-07T11:45:34.004Z,2.22
2022-09-07T11:48:38.195Z,2.67
2022-09-07T11:51:40.091Z,2.50
2022-09-07T11:54:43.357Z,2.85
2022-09-07T11:57:16.327Z,2.95
2022-09-07T12:00:38.148Z,2.60
2022-09-07T12:03:30.821Z,2.58
2022-09-07T12:06:27.944Z,2.60
2022-09-07T12:09:22.966Z,2.80
2022-09-07T12:12:44.103Z,2.53
2022-09-07T12:15:36.280Z,2.47
2022-09-07T12:18:54.249Z,2.35
2022-09-07T12:21:37.852Z,2.70
2022-09-07T12:24:04.938Z,2.55
2022-09-07T12:26:35.512Z,3.22
2022-09-07T12:29:03.774Z,2.55
2022-09-07T12:32:08.321Z,2.35
2022-09-07T12:34:51.541Z,2.00
2022-09-07T12:37:27.537Z,2.60
2022-09-07T12:40:32.105Z,2.60
2022-09-07T12:43:14.250Z,2.35
2022-09-07T12:45:41.859Z,2.60
2022-09-07T12:48:17.683Z,2.83
2022-09-07T12:54:55.791Z,2.80
2022-09-07T12:57:43.168Z,2.38
2022-09-07T13:00:25.742Z,2.15
2022-09-07T13:03:49.427Z,2.07
2022-09-07T13:06:16.358Z,3.08
2022-09-07T13:09:03.021Z,2.58
2022-09-07T13:11:39.977Z,2.70
2022-09-07T13:14:20.681Z,2.63
2022-09-07T13:19:51.394Z,2.05
2022-09-07T13:22:33.440Z,2.40
2022-09-07T13:25:21.837Z,2.22
2022-09-07T13:28:06.070Z,2.03
2022-09-07T13:30:53.490Z,2.70
2022-09-07T13:33:29.391Z,1.98
2022-09-07T13:36:01.016Z,2.08
2022-09-07T13:38:30.262Z,1.95
2022-09-07T13:41:07.468Z,2.03
2022-09-07T13:43:35.391Z,1.70
2022-09-07T13:46:32.595Z,2.13
2022-09-07T13:49:22.824Z,2.20
2022-09-07T13:52:07.975Z,1.60
2022-09-07T13:55:00.819Z,1.90
2022-09-07T13:58:13.805Z,1.73
2022-09-07T14:01:04.594Z,1.80
2022-09-07T14:03:43.786Z,1.45
2022-09-07T14:06:20.451Z,1.27
2022-09-07T14:09:13.298Z,1.50
2022-09-07T14:11:50.761Z,1.50
2022-09-07T14:14:30.117Z,1.60
2022-09-07T14:17:05.173Z,1.85
2022-09-07T14:19:37.902Z,1.40
2022-09-07T14:22:18.288Z,1.20
2022-09-07T14:24:54.978Z,1.30
2022-09-07T14:27:35.382Z,1.10
2022-09-07T14:30:27.998Z,1.50
2022-09-07T14:32:59.893Z,1.58
2022-09-07T14:35:33.392Z,1.65
2022-09-07T14:41:15.888Z,1.67
2022-09-07T14:43:57.104Z,1.83
2022-09-07T14:46:37.175Z,1.35
2022-09-07T14:49:20.234Z,1.20
2022-09-07T14:51:48.725Z,1.60
2022-09-07T14:54:34.920Z,1.50
2022-09-07T14:57:30.424Z,1.45
2022-09-07T14:59:58.785Z,1.50
2022-09-07T15:02:35.286Z,1.27
2022-09-07T15:05:28.405Z,1.40
2022-09-07T15:07:58.916Z,1.48
2022-09-07T15:10:32.983Z,1.60
2022-09-07T15:13:01.999Z,1.38
2022-09-07T15:15:39.462Z,1.70
2022-09-07T15:18:44.915Z,1.60
2022-09-07T15:21:11.771Z,1.20
2022-09-07T15:23:38.711Z,1.70
2022-09-07T15:26:06.363Z,1.45
2022-09-07T15:34:12.031Z,1.30
2022-09-07T15:36:50.929Z,1.83
2022-09-07T15:39:21.423Z,1.60
2022-09-07T15:41:48.673Z,1.70
2022-09-07T15:44:17.910Z,1.50
2022-09-07T15:49:35.306Z,1.58
2022-09-07T15:52:06.156Z,1.45
2022-09-07T15:54:36.574Z,1.40
2022-09-07T15:59:53.049Z,1.70
2022-09-07T16:05:07.936Z,1.38
2022-09-07T16:10:22.175Z,1.30
2022-09-07T16:13:16.167Z,1.80
2022-09-07T16:15:45.230Z,1.65
2022-09-07T16:18:17.664Z,1.67
2022-09-07T16:20:46.163Z,1.50
2022-09-07T16:23:16.002Z,1.40
2022-09-07T16:25:54.891Z,1.33
2022-09-07T16:28:21.830Z,1.52
2022-09-07T16:30:48.711Z,1.55
2022-09-07T16:33:15.674Z,1.45
2022-09-07T16:35:42.558Z,1.30
2022-09-07T16:40:56.320Z,2.30
2022-09-07T16:43:23.338Z,2.00
2022-09-07T16:46:05.365Z,2.47
2022-09-07T16:48:35.115Z,1.67
2022-09-07T16:51:05.699Z,1.77
2022-09-07T16:53:35.893Z,1.40
2022-09-07T16:56:09.369Z,1.70
2022-09-07T16:58:45.997Z,1.70
2022-09-07T17:01:16.678Z,1.63
2022-09-07T17:03:44.447Z,1.90
2022-09-07T17:06:13.919Z,1.90
2022-09-07T17:08:41.593Z,1.73
2022-09-07T17:11:12.416Z,1.85
2022-09-07T17:13:41.172Z,1.80
2022-09-07T17:16:17.160Z,1.70
2022-09-07T17:21:36.947Z,1.40
2022-09-07T17:24:06.528Z,1.52
2022-09-07T17:26:34.508Z,1.70
2022-09-07T17:29:01.623Z,1.42
2022-09-07T17:34:19.621Z,1.65
2022-09-07T17:36:47.216Z,2.08
2022-09-07T17:39:16.883Z,1.70
2022-09-07T17:41:47.262Z,1.67
2022-09-07T17:44:14.377Z,1.90
2022-09-07T17:46:41.366Z,1.98
2022-09-07T17:49:14.145Z,1.50
2022-09-07T17:51:41.379Z,1.70
2022-09-07T17:54:13.414Z,2.00
2022-09-07T17:56:41.856Z,1.88
2022-09-07T18:01:56.689Z,1.88
2022-09-07T18:04:24.327Z,1.70
2022-09-07T18:06:53.795Z,2.08
2022-09-07T18:09:21.491Z,1.75
2022-09-07T18:11:49.591Z,1.83
2022-09-07T18:14:17.894Z,2.00
2022-09-07T18:16:49.258Z,1.87
2022-09-07T18:19:17.942Z,1.90
2022-09-07T18:21:45.432Z,1.88
2022-09-07T18:24:16.976Z,2.10
2022-09-07T18:26:51.499Z,1.60
2022-09-07T18:29:33.558Z,1.77
2022-09-07T18:32:08.308Z,2.22
2022-09-07T18:34:37.253Z,1.95
2022-09-07T18:37:04.927Z,2.42
2022-09-07T18:39:33.294Z,1.75
2022-09-07T18:42:00.285Z,1.93
2022-09-07T18:47:22.285Z,2.20
2022-09-07T18:49:51.582Z,1.70
2022-09-07T18:55:08.453Z,1.80
2022-09-07T18:57:36.547Z,1.92
2022-09-07T19:00:06.973Z,2.00
2022-09-07T19:02:33.983Z,2.17
2022-09-07T19:07:48.081Z,2.00
2022-09-07T19:10:16.692Z,2.55
2022-09-07T19:12:45.886Z,2.33
2022-09-07T19:15:13.687Z,2.33
2022-09-07T19:17:40.764Z,2.28
2022-09-07T19:20:08.396Z,2.00
2022-09-07T19:22:35.269Z,2.78
2022-09-07T19:25:02.132Z,2.63
2022-09-07T19:27:29.073Z,2.25
2022-09-07T19:29:55.964Z,2.80
2022-09-07T19:32:22.829Z,2.20
2022-09-07T19:34:54.322Z,2.75
2022-09-07T19:37:25.604Z,2.40
2022-09-07T19:39:54.998Z,2.17
2022-09-07T19:42:23.474Z,2.30
2022-09-07T19:44:50.947Z,2.47
2022-09-07T19:47:18.573Z,2.60
2022-09-07T19:49:45.568Z,2.50
2022-09-07T19:52:12.548Z,2.58
2022-09-07T19:54:40.369Z,2.58
2022-09-07T19:57:07.260Z,2.60
2022-09-07T19:59:34.357Z,2.40
2022-09-07T20:02:01.265Z,2.53
2022-09-07T20:04:28.260Z,3.03
2022-09-07T20:06:56.218Z,3.03
2022-09-07T20:09:23.144Z,2.63
2022-09-07T20:11:50.168Z,2.70
2022-09-07T20:14:18.972Z,2.67
2022-09-07T20:16:45.931Z,3.10
2022-09-07T20:19:14.864Z,3.30
2022-09-07T20:21:42.845Z,3.20
2022-09-07T20:24:12.398Z,2.85
2022-09-07T20:26:39.577Z,2.95
2022-09-07T20:31:54.346Z,3.28
2022-09-07T20:34:21.413Z,2.33
2022-09-07T20:36:51.860Z,2.70
2022-09-07T20:39:20.225Z,3.38
2022-09-07T20:41:47.674Z,2.95
2022-09-07T20:44:15.098Z,2.72
2022-09-07T20:46:42.334Z,3.33
2022-09-07T20:49:09.581Z,3.13
2022-09-07T20:51:36.589Z,3.53
2022-09-07T20:54:03.695Z,3.10
2022-09-07T20:56:31.042Z,3.33
2022-09-07T20:59:00.504Z,3.13
2022-09-07T21:01:29.447Z,3.05
2022-09-07T21:03:59.029Z,2.95
2022-09-07T21:06:28.004Z,2.92
2022-09-07T21:08:57.022Z,3.70
2022-09-07T21:11:31.017Z,3.17
2022-09-07T21:14:17.710Z,2.95
2022-09-07T21:16:44.607Z,3.33
2022-09-07T21:19:11.472Z,2.95
2022-09-07T21:21:43.274Z,2.92
2022-09-07T21:24:21.431Z,3.47
2022-09-07T21:26:50.428Z,3.40
2022-09-07T21:29:23.672Z,3.05
2022-09-07T21:31:53.226Z,3.22
2022-09-07T21:34:20.396Z,3.30
2022-09-07T21:36:47.436Z,3.40
2022-09-07T21:39:15.285Z,2.83
2022-09-07T21:41:43.617Z,3.55
2022-09-07T21:44:15.978Z,3.60
2022-09-07T21:46:44.045Z,3.65
2022-09-07T21:49:11.264Z,3.80
2022-09-07T21:51:38.160Z,3.72
2022-09-07T21:54:05.138Z,4.00
2022-09-07T21:56:32.250Z,3.78
2022-09-07T21:59:01.832Z,3.60
2022-09-07T22:01:30.594Z,3.60
2022-09-07T22:04:00.897Z,4.00
2022-09-07T22:06:28.885Z,3.50
2022-09-07T22:08:56.758Z,3.53
2022-09-07T22:11:26.574Z,3.40
2022-09-07T22:14:02.623Z,3.40
2022-09-07T22:16:31.599Z,3.58
2022-09-07T22:18:58.830Z,4.10
2022-09-07T22:21:28.759Z,4.15
2022-09-07T22:24:00.617Z,4.43
2022-09-07T22:26:31.029Z,4.20
2022-09-07T22:28:58.958Z,4.20
2022-09-07T22:31:37.433Z,4.25
2022-09-07T22:34:08.322Z,4.10
2022-09-07T22:36:42.511Z,4.50
2022-09-07T22:39:14.467Z,4.30
2022-09-07T22:41:42.623Z,4.38
2022-09-07T22:44:18.458Z,4.55
2022-09-07T22:46:46.979Z,4.47
2022-09-07T22:49:16.781Z,4.38
2022-09-07T22:51:44.357Z,4.43
2022-09-07T22:54:11.546Z,3.92
2022-09-07T22:56:39.003Z,5.05
2022-09-07T22:59:08.049Z,4.32
2022-09-07T23:01:36.116Z,4.35
2022-09-07T23:04:04.363Z,5.07
2022-09-07T23:06:37.941Z,4.90
2022-09-07T23:09:15.095Z,5.13
2022-09-07T23:11:43.007Z,5.20
2022-09-07T23:14:19.628Z,6.18
2022-09-07T23:16:46.788Z,5.40
2022-09-07T23:19:16.893Z,6.07
2022-09-07T23:21:44.354Z,6.40
2022-09-07T23:24:17.244Z,6.85
2022-09-07T23:26:44.664Z,6.45
2022-09-07T23:29:13.659Z,6.80
2022-09-07T23:31:41.390Z,7.40
2022-09-07T23:34:09.159Z,7.38
2022-09-07T23:36:37.146Z,8.50
2022-09-07T23:39:04.453Z,9.07
2022-09-07T23:41:31.596Z,11.60
2022-09-07T23:43:58.847Z,12.50
2022-09-07T23:46:25.808Z,13.65
2022-09-07T23:48:52.885Z,13.85
2022-09-07T23:51:23.891Z,13.57
2022-09-07T23:53:52.437Z,13.13
2022-09-07T23:56:20.521Z,14.07
2022-09-07T23:58:47.740Z,14.07
